Time;durP1;ratioP1;P1;durP2;ratioP2;P2;SDS_P1;SDS_P2;PMS_P1;PMS_P2;Temp;Humidity;BMP_temperature;BMP_pressure;BME280_temperature;BME280_humidity;BME280_pressure;Samples;Min_cycle;Max_cycle;Signal;HPM_P1;HPM_P2
2021/06/23 00:01:16;;;;;;;0.60;0.37;;;17.40;99.90;;;;;;5094530;28;20214;-83
2021/06/23 00:03:42;;;;;;;0.30;0.30;;;17.50;99.90;;;;;;5097806;28;20656;-83
2021/06/23 00:06:08;;;;;;;0.30;0.30;;;17.70;99.90;;;;;;5093240;28;20278;-83
2021/06/23 00:08:33;;;;;;;0.20;0.20;;;17.90;99.90;;;;;;5111575;28;20308;-83
2021/06/23 00:11:00;;;;;;;0.30;0.30;;;18.10;99.90;;;;;;5092946;28;20277;-83
2021/06/23 00:13:33;;;;;;;0.27;0.27;;;18.30;99.90;;;;;;5091361;28;20230;-83
2021/06/23 00:16:00;;;;;;;0.30;0.30;;;18.40;99.90;;;;;;5094645;28;20182;-83
2021/06/23 00:18:25;;;;;;;0.10;0.10;;;18.50;99.90;;;;;;5112714;28;20187;-83
2021/06/23 00:20:51;;;;;;;0.40;0.40;;;18.60;99.90;;;;;;5097418;28;20188;-84
2021/06/23 00:23:17;;;;;;;0.20;0.20;;;18.70;99.90;;;;;;5095809;28;20191;-83
2021/06/23 00:25:42;;;;;;;0.20;0.20;;;18.80;99.90;;;;;;5090730;28;20192;-83
2021/06/23 00:28:08;;;;;;;0.67;0.30;;;18.80;99.90;;;;;;5090324;28;20212;-83
2021/06/23 00:30:34;;;;;;;0.63;0.30;;;18.50;99.90;;;;;;5095240;28;20195;-83
2021/06/23 00:33:08;;;;;;;0.30;0.30;;;18.60;99.90;;;;;;5103307;28;20268;-83
2021/06/23 00:35:35;;;;;;;0.40;0.40;;;18.60;99.90;;;;;;5089761;28;20192;-83
2021/06/23 00:38:01;;;;;;;0.53;0.40;;;18.30;99.90;;;;;;5101955;28;20599;-83
2021/06/23 00:40:27;;;;;;;0.30;0.30;;;18.40;99.90;;;;;;5095630;28;20190;-83
2021/06/23 00:42:53;;;;;;;0.53;0.50;;;18.50;99.90;;;;;;5097403;28;20237;-83
2021/06/23 00:45:20;;;;;;;0.30;0.30;;;18.30;99.90;;;;;;5100475;28;20187;-82
2021/06/23 00:47:47;;;;;;;1.50;0.63;;;18.30;99.90;;;;;;5096540;28;20226;-83
2021/06/23 00:50:15;;;;;;;0.30;0.30;;;18.10;99.90;;;;;;5094245;28;20648;-83
2021/06/23 00:52:42;;;;;;;0.80;0.60;;;18.10;99.90;;;;;;5090399;28;20215;-83
2021/06/23 00:55:08;;;;;;;0.40;0.40;;;18.20;99.90;;;;;;5090925;28;20196;-84
2021/06/23 00:57:37;;;;;;;0.80;0.57;;;18.20;99.90;;;;;;5101638;28;20183;-83
2021/06/23 01:00:05;;;;;;;0.47;0.30;;;18.30;99.90;;;;;;5099175;28;20388;-83
2021/06/23 01:02:31;;;;;;;5.83;0.30;;;18.30;99.90;;;;;;5089776;28;20214;-84
2021/06/23 01:04:57;;;;;;;0.67;0.67;;;18.40;99.90;;;;;;5109823;28;20277;-84
2021/06/23 01:07:23;;;;;;;0.43;0.37;;;18.50;99.90;;;;;;5096168;28;20184;-83
2021/06/23 01:09:49;;;;;;;0.30;0.30;;;18.20;99.90;;;;;;5089161;28;20195;-83
2021/06/23 01:12:18;;;;;;;0.20;0.20;;;18.20;99.90;;;;;;5089742;28;20221;-83
2021/06/23 01:14:44;;;;;;;0.80;0.80;;;18.10;99.90;;;;;;5091665;28;20238;-83
2021/06/23 01:17:11;;;;;;;0.40;0.40;;;18.00;99.90;;;;;;5090357;28;20215;-83
2021/06/23 01:19:41;;;;;;;0.60;0.60;;;17.90;99.90;;;;;;5089274;28;20555;-83
2021/06/23 01:22:07;;;;;;;0.27;0.27;;;17.80;99.90;;;;;;5091637;28;20235;-83
2021/06/23 01:24:32;;;;;;;1.97;0.67;;;17.40;99.90;;;;;;5094448;28;20192;-83
2021/06/23 01:26:58;;;;;;;0.47;0.40;;;17.40;99.90;;;;;;5094211;28;20186;-83
2021/06/23 01:29:24;;;;;;;0.47;0.47;;;17.30;99.90;;;;;;5091824;28;20193;-83
2021/06/23 01:31:49;;;;;;;0.27;0.27;;;17.20;99.90;;;;;;5095593;28;20687;-82
2021/06/23 01:34:16;;;;;;;0.47;0.47;;;17.40;99.90;;;;;;5103880;28;20184;-83
2021/06/23 01:36:42;;;;;;;0.27;0.27;;;17.50;99.90;;;;;;5102925;28;20180;-83
2021/06/23 01:39:07;;;;;;;0.40;0.40;;;17.40;99.90;;;;;;5092862;28;20619;-83
2021/06/23 01:41:33;;;;;;;0.60;0.60;;;17.30;99.90;;;;;;5090422;28;20200;-83
2021/06/23 01:44:00;;;;;;;0.43;0.43;;;17.10;99.90;;;;;;5099640;28;20272;-83
2021/06/23 01:46:26;;;;;;;0.10;0.10;;;17.10;99.90;;;;;;5087231;28;20192;-83
2021/06/23 01:48:51;;;;;;;0.43;0.43;;;17.00;99.90;;;;;;5098670;28;20199;-83
2021/06/23 01:51:17;;;;;;;0.40;0.40;;;16.90;99.90;;;;;;5090209;28;20211;-83
2021/06/23 01:53:55;;;;;;;0.50;0.50;;;16.90;99.90;;;;;;5103056;28;20188;-83
2021/06/23 01:56:21;;;;;;;0.53;0.40;;;16.90;99.90;;;;;;5090311;28;20238;-83
2021/06/23 01:58:46;;;;;;;0.30;0.30;;;16.80;99.90;;;;;;5101539;28;20188;-82
2021/06/23 02:01:22;;;;;;;0.43;0.43;;;16.90;99.90;;;;;;5098545;28;20207;-83
2021/06/23 02:03:57;;;;;;;0.40;0.40;;;16.90;99.90;;;;;;5093870;28;20199;-83
2021/06/23 02:06:25;;;;;;;0.20;0.20;;;16.90;99.90;;;;;;5092981;28;20243;-83
2021/06/23 02:09:27;;;;;;;0.50;0.50;;;17.00;99.90;;;;;;5089300;28;20542;-83
2021/06/23 02:12:23;;;;;;;0.37;0.30;;;17.00;99.90;;;;;;5045704;28;20277;-83
2021/06/23 02:14:51;;;;;;;0.33;0.33;;;17.00;99.90;;;;;;5093040;28;20226;-83
2021/06/23 02:17:17;;;;;;;0.33;0.33;;;17.00;99.90;;;;;;5093201;28;20187;-83
2021/06/23 02:19:46;;;;;;;0.30;0.30;;;17.00;99.90;;;;;;5114102;28;20192;-84
2021/06/23 02:22:23;;;;;;;0.27;0.27;;;17.00;99.90;;;;;;5103548;28;20304;-83
2021/06/23 02:24:52;;;;;;;0.50;0.50;;;17.00;99.90;;;;;;5094623;28;20190;-84
2021/06/23 02:27:18;;;;;;;1.20;0.80;;;17.00;99.90;;;;;;5081523;28;20190;-83
2021/06/23 02:29:45;;;;;;;0.33;0.33;;;16.90;99.90;;;;;;5102469;28;20627;-83
2021/06/23 02:32:15;;;;;;;0.53;0.43;;;17.00;99.90;;;;;;5095395;28;20306;-83
2021/06/23 02:34:42;;;;;;;0.43;0.43;;;17.00;99.90;;;;;;5092077;28;20719;-83
2021/06/23 02:37:09;;;;;;;0.40;0.20;;;17.00;99.90;;;;;;5103569;28;20245;-83
2021/06/23 02:39:36;;;;;;;0.47;0.47;;;17.00;99.90;;;;;;5094166;28;20200;-84
2021/06/23 02:42:03;;;;;;;0.20;0.20;;;17.20;99.90;;;;;;5097846;28;20217;-83
2021/06/23 02:44:28;;;;;;;0.23;0.20;;;17.30;99.90;;;;;;5094964;28;20186;-83
2021/06/23 02:46:54;;;;;;;0.60;0.60;;;17.50;99.90;;;;;;5090112;28;20190;-83
2021/06/23 02:49:20;;;;;;;0.50;0.50;;;17.70;99.90;;;;;;5100464;28;20215;-83
2021/06/23 02:51:47;;;;;;;0.30;0.30;;;17.60;99.90;;;;;;5093490;28;20253;-84
2021/06/23 02:54:13;;;;;;;0.37;0.37;;;17.60;99.90;;;;;;5093042;28;20188;-84
2021/06/23 02:56:39;;;;;;;0.50;0.50;;;17.60;99.90;;;;;;5094909;28;20195;-82
2021/06/23 02:59:05;;;;;;;0.63;0.60;;;17.70;99.90;;;;;;5092631;28;20187;-84
2021/06/23 03:01:31;;;;;;;0.20;0.20;;;17.80;99.90;;;;;;5091776;28;20292;-83
2021/06/23 03:03:57;;;;;;;0.37;0.37;;;17.80;99.90;;;;;;5081167;28;20212;-84
2021/06/23 03:06:23;;;;;;;0.33;0.33;;;17.90;99.90;;;;;;5090045;28;20554;-83
2021/06/23 03:08:49;;;;;;;0.30;0.30;;;17.90;99.90;;;;;;5093376;28;20263;-83
2021/06/23 03:11:15;;;;;;;0.13;0.13;;;18.00;99.90;;;;;;5088922;28;20222;-84
2021/06/23 03:13:41;;;;;;;0.33;0.33;;;17.90;99.90;;;;;;5090500;28;20278;-83
2021/06/23 03:16:07;;;;;;;0.40;0.40;;;17.90;99.90;;;;;;5091525;28;20291;-84
2021/06/23 03:18:33;;;;;;;0.20;0.20;;;17.90;99.90;;;;;;5091118;28;20184;-82
2021/06/23 03:21:04;;;;;;;0.20;0.20;;;17.90;99.90;;;;;;5090475;28;20196;-83
2021/06/23 03:23:30;;;;;;;0.30;0.30;;;17.90;99.90;;;;;;5085899;28;20275;-83
2021/06/23 03:25:55;;;;;;;0.40;0.40;;;17.80;99.90;;;;;;5091245;28;20742;-83
2021/06/23 03:28:22;;;;;;;0.30;0.30;;;17.60;99.90;;;;;;5089683;28;20187;-83
2021/06/23 03:30:48;;;;;;;0.40;0.40;;;17.60;99.90;;;;;;5096738;28;20197;-83
2021/06/23 03:33:13;;;;;;;0.27;0.27;;;17.60;99.90;;;;;;5093794;28;20196;-83
2021/06/23 03:35:40;;;;;;;2.07;0.20;;;17.60;99.90;;;;;;5078530;28;20539;-83
2021/06/23 03:38:06;;;;;;;0.43;0.43;;;17.60;99.90;;;;;;5080080;28;20182;-83
2021/06/23 03:40:32;;;;;;;0.27;0.27;;;17.40;99.90;;;;;;5090141;28;20286;-81
2021/06/23 03:42:57;;;;;;;0.43;0.43;;;17.40;99.90;;;;;;5084326;28;20211;-83
2021/06/23 03:45:23;;;;;;;1.23;0.57;;;17.50;99.90;;;;;;5078458;28;20195;-83
2021/06/23 03:47:49;;;;;;;0.13;0.13;;;17.60;99.90;;;;;;5087641;28;20230;-83
2021/06/23 03:50:16;;;;;;;0.30;0.30;;;17.70;99.90;;;;;;5086073;28;20217;-83
2021/06/23 03:52:42;;;;;;;0.73;0.50;;;17.90;99.90;;;;;;5093995;28;20743;-83
2021/06/23 03:55:19;;;;;;;0.53;0.53;;;18.00;99.90;;;;;;5087027;28;20188;-83
2021/06/23 03:57:48;;;;;;;0.57;0.37;;;18.10;99.90;;;;;;5077462;28;20192;-83
2021/06/23 04:00:14;;;;;;;0.20;0.20;;;18.20;99.90;;;;;;5090313;28;20184;-83
2021/06/23 04:02:39;;;;;;;0.17;0.17;;;18.10;99.90;;;;;;5091948;28;20710;-83
2021/06/23 04:05:06;;;;;;;0.37;0.37;;;18.00;99.90;;;;;;5084138;28;20188;-83
2021/06/23 04:07:31;;;;;;;0.27;0.27;;;18.00;99.90;;;;;;5081748;28;20285;-82
2021/06/23 04:09:57;;;;;;;1.13;0.40;;;18.10;99.90;;;;;;5090091;28;20708;-83
2021/06/23 04:12:22;;;;;;;0.30;0.30;;;18.10;99.90;;;;;;5075655;28;20218;-83
2021/06/23 04:14:48;;;;;;;0.20;0.20;;;17.80;99.90;;;;;;5090498;28;20180;-83
2021/06/23 04:17:14;;;;;;;0.30;0.30;;;17.80;99.90;;;;;;5078751;28;20189;-83
2021/06/23 04:19:39;;;;;;;0.33;0.33;;;18.00;99.90;;;;;;5091273;28;20208;-83
2021/06/23 04:22:05;;;;;;;0.40;0.40;;;18.10;99.90;;;;;;5080029;28;20655;-83
2021/06/23 04:24:30;;;;;;;0.30;0.30;;;18.20;99.90;;;;;;5086738;28;20188;-83
2021/06/23 04:26:56;;;;;;;0.37;0.37;;;18.00;99.90;;;;;;5079617;28;20280;-83
2021/06/23 04:29:22;;;;;;;0.43;0.43;;;17.80;99.90;;;;;;5088640;28;20192;-83
2021/06/23 04:31:47;;;;;;;0.20;0.20;;;17.80;99.90;;;;;;5083956;28;20311;-83
2021/06/23 04:34:14;;;;;;;0.30;0.30;;;18.20;99.90;;;;;;5089063;28;20668;-83
2021/06/23 04:36:40;;;;;;;0.63;0.63;;;18.70;99.90;;;;;;5081579;28;20181;-83
2021/06/23 04:39:05;;;;;;;0.50;0.50;;;19.40;99.90;;;;;;5091873;28;20264;-83
2021/06/23 04:41:31;;;;;;;0.27;0.27;;;19.90;99.90;;;;;;5086707;28;20314;-83
2021/06/23 04:43:56;;;;;;;0.47;0.47;;;20.00;99.90;;;;;;5088907;28;20188;-82
2021/06/23 04:46:22;;;;;;;0.60;0.60;;;20.40;99.90;;;;;;5082521;28;20671;-81
2021/06/23 04:48:48;;;;;;;0.40;0.40;;;20.60;99.90;;;;;;5083631;28;20196;-83
2021/06/23 04:51:15;;;;;;;0.63;0.60;;;20.40;99.90;;;;;;5086987;28;20304;-83
2021/06/23 04:53:41;;;;;;;0.60;0.60;;;20.40;99.90;;;;;;5088733;28;20188;-82
2021/06/23 04:56:07;;;;;;;0.50;0.50;;;20.30;99.90;;;;;;5083300;28;20185;-83
2021/06/23 04:58:32;;;;;;;0.30;0.30;;;20.20;99.90;;;;;;5086428;28;20184;-82
2021/06/23 05:00:58;;;;;;;0.57;0.40;;;20.20;99.90;;;;;;5077786;28;20200;-84
2021/06/23 05:03:24;;;;;;;0.30;0.30;;;19.90;99.90;;;;;;5090877;28;20191;-83
2021/06/23 05:05:49;;;;;;;0.37;0.37;;;20.10;99.90;;;;;;5080633;28;20194;-83
2021/06/23 05:08:15;;;;;;;1.30;0.37;;;20.10;99.90;;;;;;5080843;28;20222;-83
2021/06/23 05:10:40;;;;;;;0.30;0.30;;;20.10;99.90;;;;;;5086767;28;20188;-83
2021/06/23 05:13:06;;;;;;;1.20;0.83;;;20.00;99.90;;;;;;5079293;28;20199;-81
2021/06/23 05:15:33;;;;;;;0.77;0.30;;;20.10;99.90;;;;;;5087740;28;20180;-82
2021/06/23 05:17:58;;;;;;;0.23;0.23;;;20.00;99.90;;;;;;5092658;28;20252;-81
2021/06/23 05:20:24;;;;;;;0.50;0.50;;;20.00;99.90;;;;;;5086653;28;20216;-82
2021/06/23 05:22:51;;;;;;;0.60;0.60;;;20.00;99.90;;;;;;5088965;28;20224;-82
2021/06/23 05:25:18;;;;;;;1.60;0.87;;;20.10;99.90;;;;;;5079482;28;20193;-81
2021/06/23 05:27:44;;;;;;;0.50;0.40;;;20.10;99.90;;;;;;5084817;28;20196;-82
2021/06/23 05:30:10;;;;;;;0.30;0.30;;;20.10;99.90;;;;;;5088075;28;20189;-82
2021/06/23 05:32:36;;;;;;;0.73;0.70;;;20.10;99.90;;;;;;5081247;28;20215;-83
2021/06/23 05:35:03;;;;;;;2.30;0.50;;;20.20;99.90;;;;;;5080770;28;20181;-82
2021/06/23 05:37:28;;;;;;;0.20;0.20;;;20.10;99.90;;;;;;5076752;28;20184;-83
2021/06/23 05:39:54;;;;;;;0.60;0.60;;;20.20;99.90;;;;;;5079522;28;20237;-82
2021/06/23 05:42:20;;;;;;;0.20;0.20;;;20.20;99.90;;;;;;5083222;28;20591;-82
2021/06/23 05:44:46;;;;;;;0.47;0.47;;;20.30;99.90;;;;;;5084950;28;20188;-83
2021/06/23 05:47:12;;;;;;;0.30;0.30;;;20.30;99.90;;;;;;5080362;28;20207;-82
2021/06/23 05:49:37;;;;;;;0.30;0.30;;;20.40;99.90;;;;;;5085653;28;20183;-83
2021/06/23 05:52:04;;;;;;;0.30;0.30;;;20.50;99.90;;;;;;5092365;28;20211;-83
2021/06/23 05:54:30;;;;;;;0.40;0.40;;;20.60;99.90;;;;;;5076479;28;20173;-83
2021/06/23 05:56:56;;;;;;;0.73;0.33;;;20.70;99.90;;;;;;5077856;28;20181;-82
2021/06/23 05:59:22;;;;;;;0.30;0.30;;;20.70;99.90;;;;;;5083260;28;20238;-83
2021/06/23 06:01:48;;;;;;;0.17;0.17;;;20.80;99.90;;;;;;5084064;28;20212;-83
2021/06/23 06:04:13;;;;;;;0.20;0.20;;;21.00;99.90;;;;;;5083353;28;20234;-83
2021/06/23 06:06:39;;;;;;;0.27;0.27;;;21.10;99.90;;;;;;5099909;28;20644;-83
2021/06/23 06:09:05;;;;;;;0.57;0.57;;;21.10;99.90;;;;;;5090087;28;20189;-82
2021/06/23 06:11:30;;;;;;;0.60;0.60;;;21.00;99.90;;;;;;5086646;28;20592;-82
2021/06/23 06:13:56;;;;;;;1.20;0.77;;;20.30;99.90;;;;;;5088974;28;20668;-82
2021/06/23 06:16:21;;;;;;;0.40;0.40;;;20.50;99.90;;;;;;5092993;28;20176;-83
2021/06/23 06:18:48;;;;;;;0.80;0.60;;;20.50;99.90;;;;;;5080991;28;20249;-82
2021/06/23 06:21:14;;;;;;;0.73;0.53;;;20.30;99.90;;;;;;5085644;28;20219;-83
2021/06/23 06:23:40;;;;;;;0.50;0.50;;;20.10;99.90;;;;;;5084456;28;20181;-83
2021/06/23 06:26:06;;;;;;;1.00;0.37;;;20.30;99.90;;;;;;5081740;28;20540;-82
2021/06/23 06:28:31;;;;;;;0.60;0.60;;;20.50;99.90;;;;;;5084722;28;20197;-83
2021/06/23 06:30:57;;;;;;;0.73;0.53;;;20.80;99.90;;;;;;5103796;28;20184;-83
2021/06/23 06:33:23;;;;;;;0.90;0.57;;;21.20;99.90;;;;;;5097844;28;20212;-82
2021/06/23 06:35:48;;;;;;;1.67;0.70;;;21.30;99.90;;;;;;5078181;28;20193;-83
2021/06/23 06:38:14;;;;;;;2.80;1.47;;;20.50;99.90;;;;;;5101654;28;20184;-83
2021/06/23 06:40:40;;;;;;;0.50;0.40;;;20.80;99.90;;;;;;5083314;28;20249;-83
2021/06/23 06:43:06;;;;;;;0.20;0.20;;;21.20;99.90;;;;;;5096643;28;20287;-83
2021/06/23 06:45:31;;;;;;;0.63;0.63;;;21.60;99.90;;;;;;5086581;28;20180;-83
2021/06/23 06:47:57;;;;;;;0.40;0.40;;;20.80;99.90;;;;;;5089551;28;20176;-83
2021/06/23 06:50:23;;;;;;;0.20;0.20;;;21.10;99.90;;;;;;5093038;28;20187;-83
2021/06/23 06:52:49;;;;;;;0.43;0.30;;;21.30;99.90;;;;;;5087232;28;20212;-83
2021/06/23 06:55:20;;;;;;;0.40;0.40;;;20.60;99.90;;;;;;5079671;28;20188;-83
2021/06/23 06:57:48;;;;;;;0.80;0.80;;;20.50;99.90;;;;;;5080078;28;20209;-83
2021/06/23 07:00:14;;;;;;;0.53;0.53;;;20.70;99.90;;;;;;5076538;28;20193;-83
2021/06/23 07:02:40;;;;;;;0.53;0.53;;;20.30;99.90;;;;;;5079973;28;20217;-84
2021/06/23 07:05:06;;;;;;;0.40;0.40;;;20.20;99.90;;;;;;5081457;28;20551;-83
2021/06/23 07:07:32;;;;;;;0.40;0.40;;;20.30;99.90;;;;;;5082136;28;20181;-84
2021/06/23 07:09:57;;;;;;;0.60;0.40;;;20.50;99.90;;;;;;5090287;28;20189;-84
2021/06/23 07:12:23;;;;;;;0.37;0.37;;;20.80;99.90;;;;;;5084991;28;20216;-83
2021/06/23 07:14:49;;;;;;;0.30;0.30;;;20.80;99.90;;;;;;5080055;28;20189;-84
2021/06/23 07:17:14;;;;;;;0.80;0.80;;;20.80;99.90;;;;;;5075367;28;20180;-82
2021/06/23 07:19:40;;;;;;;1.47;0.80;;;20.60;99.90;;;;;;5084256;28;20190;-83
2021/06/23 07:22:05;;;;;;;0.30;0.30;;;20.40;99.90;;;;;;5076880;28;20228;-84
2021/06/23 07:24:31;;;;;;;2.43;0.53;;;20.40;99.90;;;;;;5082979;28;20184;-83
2021/06/23 07:26:59;;;;;;;0.30;0.30;;;21.20;99.90;;;;;;5083700;28;20194;-83
2021/06/23 07:29:28;;;;;;;0.47;0.40;;;21.10;99.90;;;;;;5081271;28;20298;-84
2021/06/23 07:32:06;;;;;;;0.30;0.30;;;21.50;99.90;;;;;;5086759;28;20220;-81
2021/06/23 07:36:33;;;;;;;1.70;1.23;;;22.10;99.90;;;;;;5060410;28;20202;-83
2021/06/23 07:37:22;;;;;;;0.30;0.30;;;22.00;99.90;;;;;;5053699;28;20186;-84
2021/06/23 07:39:48;;;;;;;0.50;0.50;;;22.40;99.90;;;;;;5056003;28;20638;-83
2021/06/23 07:42:14;;;;;;;0.47;0.47;;;22.70;99.90;;;;;;5055787;28;20209;-84
2021/06/23 07:45:13;;;;;;;0.50;0.50;;;22.00;99.90;;;;;;5065385;28;20680;-82
2021/06/23 07:47:34;;;;;;;0.50;0.50;;;21.40;99.90;;;;;;5063173;28;20256;-84
2021/06/23 07:50:00;;;;;;;0.63;0.63;;;21.70;99.90;;;;;;5064971;28;20894;-83
2021/06/23 08:09:17;;;;;;;0.77;0.77;;;21.20;99.90;;;;;;5072665;28;20215;-82
2021/06/23 08:11:46;;;;;;;0.30;0.30;;;21.90;99.90;;;;;;5064427;28;20220;-82
2021/06/23 08:14:12;;;;;;;0.43;0.43;;;22.30;99.90;;;;;;5069364;28;20199;-82
2021/06/23 08:16:37;;;;;;;1.50;1.10;;;21.20;99.90;;;;;;5054075;28;20209;-84
2021/06/23 08:19:04;;;;;;;0.80;0.70;;;21.30;99.90;;;;;;5062004;28;20178;-83
2021/06/23 08:21:30;;;;;;;0.80;0.70;;;21.10;99.90;;;;;;5072875;28;20234;-84
2021/06/23 08:23:56;;;;;;;0.73;0.73;;;21.10;99.90;;;;;;5061610;28;20182;-83
2021/06/23 08:26:22;;;;;;;0.87;0.87;;;21.20;99.90;;;;;;5058799;28;20209;-83
2021/06/23 08:28:48;;;;;;;0.80;0.80;;;21.20;99.90;;;;;;5067064;28;20306;-83
2021/06/23 08:31:14;;;;;;;1.90;0.83;;;21.20;99.90;;;;;;5058681;28;20224;-83
2021/06/23 08:33:39;;;;;;;1.23;0.90;;;22.00;99.90;;;;;;5055295;28;20181;-84
2021/06/23 08:36:05;;;;;;;1.13;1.10;;;21.50;99.90;;;;;;5062017;28;20568;-84
2021/06/23 08:38:32;;;;;;;0.57;0.57;;;21.50;99.90;;;;;;5065213;28;20188;-83
2021/06/23 08:40:58;;;;;;;1.17;0.77;;;21.60;99.90;;;;;;5065804;28;20597;-83
2021/06/23 08:43:23;;;;;;;0.77;0.77;;;21.40;99.90;;;;;;5067156;28;20174;-84
2021/06/23 08:45:49;;;;;;;0.60;0.50;;;21.50;99.90;;;;;;5059807;28;20178;-82
2021/06/23 08:48:15;;;;;;;0.87;0.70;;;21.90;99.90;;;;;;5067669;28;20177;-82
2021/06/23 08:50:41;;;;;;;0.90;0.50;;;22.00;99.90;;;;;;5061507;28;20191;-83
2021/06/23 08:53:08;;;;;;;0.30;0.30;;;22.20;99.90;;;;;;5062842;28;20209;-84
2021/06/23 08:55:34;;;;;;;0.50;0.50;;;22.90;99.90;;;;;;5072274;28;20177;-84
2021/06/23 08:58:00;;;;;;;0.40;0.40;;;23.40;99.90;;;;;;5064433;28;20181;-84
2021/06/23 09:00:26;;;;;;;0.50;0.40;;;23.60;99.90;;;;;;5067553;28;20176;-83
2021/06/23 09:02:52;;;;;;;0.60;0.60;;;24.10;99.90;;;;;;5055145;28;20284;-84
2021/06/23 09:05:18;;;;;;;0.43;0.43;;;24.30;99.90;;;;;;5064166;28;20222;-83
2021/06/23 09:07:59;;;;;;;0.87;0.87;;;24.60;99.90;;;;;;5068499;28;20189;-84
2021/06/23 09:10:28;;;;;;;2.30;1.10;;;24.80;99.90;;;;;;5069678;28;20318;-84
2021/06/23 09:13:08;;;;;;;0.43;0.43;;;24.20;99.90;;;;;;5071240;28;20262;-84
2021/06/23 09:16:01;;;;;;;0.70;0.53;;;24.40;99.90;;;;;;5069548;28;20248;-83
2021/06/23 09:18:33;;;;;;;0.47;0.47;;;24.60;99.90;;;;;;5066616;28;20275;-83
2021/06/23 09:21:14;;;;;;;0.63;0.57;;;24.90;99.90;;;;;;5061059;28;20250;-82
2021/06/23 09:23:55;;;;;;;0.77;0.70;;;24.50;99.90;;;;;;5062865;28;20195;-84
2021/06/23 09:26:23;;;;;;;0.20;0.20;;;25.00;99.90;;;;;;5058520;28;20819;-83
2021/06/23 09:29:15;;;;;;;0.40;0.40;;;25.60;99.90;;;;;;5059694;28;20649;-83
2021/06/23 09:31:59;;;;;;;0.60;0.60;;;25.90;99.90;;;;;;5074072;28;20599;-84
2021/06/23 09:34:31;;;;;;;0.47;0.47;;;25.70;99.90;;;;;;5062329;28;20189;-84
2021/06/23 09:36:57;;;;;;;0.83;0.40;;;25.40;99.90;;;;;;5063999;28;20190;-84
2021/06/23 09:39:25;;;;;;;0.30;0.30;;;25.90;99.90;;;;;;5070211;28;20184;-84
2021/06/23 09:41:52;;;;;;;0.53;0.53;;;25.50;99.90;;;;;;5061062;28;20215;-83
2021/06/23 09:44:19;;;;;;;1.37;0.90;;;25.30;99.90;;;;;;5066911;28;20181;-83
2021/06/23 09:46:46;;;;;;;0.60;0.60;;;26.00;99.90;;;;;;5076051;28;20195;-84
2021/06/23 09:49:22;;;;;;;0.40;0.40;;;26.20;99.90;;;;;;5070048;28;20692;-84
2021/06/23 09:51:47;;;;;;;0.70;0.40;;;26.40;99.90;;;;;;5077811;28;20261;-83
2021/06/23 09:54:15;;;;;;;1.27;0.33;;;26.60;99.90;;;;;;5071641;28;20169;-85
2021/06/23 09:56:45;;;;;;;0.90;0.90;;;26.40;99.90;;;;;;5065411;28;20272;-84
2021/06/23 09:59:35;;;;;;;1.30;0.67;;;25.40;99.90;;;;;;5062653;28;20186;-84
2021/06/23 10:02:02;;;;;;;0.50;0.50;;;25.50;99.90;;;;;;5063342;28;20209;-84
2021/06/23 10:04:35;;;;;;;0.40;0.40;;;26.30;99.90;;;;;;5072217;28;20185;-84
2021/06/23 10:07:02;;;;;;;0.50;0.50;;;27.00;99.90;;;;;;5062713;28;20600;-84
2021/06/23 10:09:30;;;;;;;1.20;0.80;;;26.60;99.90;;;;;;5061158;28;20212;-83
2021/06/23 10:12:01;;;;;;;0.90;0.67;;;27.20;99.90;;;;;;5066551;28;20220;-84
2021/06/23 10:14:33;;;;;;;0.40;0.40;;;27.20;99.90;;;;;;5070247;28;20176;-84
2021/06/23 10:17:01;;;;;;;0.80;0.70;;;27.70;99.90;;;;;;5068808;28;20273;-84
2021/06/23 10:19:28;;;;;;;0.40;0.30;;;28.00;99.90;;;;;;5064437;28;20239;-83
2021/06/23 10:22:00;;;;;;;0.50;0.40;;;28.20;99.90;;;;;;5061261;28;20225;-84
2021/06/23 10:24:28;;;;;;;0.50;0.40;;;28.00;99.90;;;;;;5067586;28;20181;-84
2021/06/23 10:26:56;;;;;;;0.60;0.60;;;27.90;99.90;;;;;;5064077;28;20213;-85
2021/06/23 10:29:31;;;;;;;0.60;0.60;;;28.10;99.90;;;;;;5076770;28;20187;-84
2021/06/23 10:31:58;;;;;;;1.47;0.40;;;28.30;99.90;;;;;;5069527;28;20738;-84
2021/06/23 10:34:25;;;;;;;0.53;0.53;;;28.00;99.90;;;;;;5071599;28;20267;-84
2021/06/23 10:36:52;;;;;;;0.73;0.73;;;27.40;99.90;;;;;;5072567;28;20177;-84
2021/06/23 10:39:19;;;;;;;0.63;0.63;;;26.50;99.90;;;;;;5069721;28;20212;-84
2021/06/23 10:41:48;;;;;;;0.87;0.80;;;25.40;99.90;;;;;;5072744;28;20201;-84
2021/06/23 10:44:17;;;;;;;2.07;1.50;;;25.40;99.90;;;;;;5065562;28;20243;-84
2021/06/23 10:46:44;;;;;;;0.40;0.40;;;25.20;99.90;;;;;;5057314;28;20190;-84
2021/06/23 10:49:15;;;;;;;0.50;0.50;;;25.40;99.90;;;;;;5067883;28;20606;-85
2021/06/23 10:51:41;;;;;;;0.53;0.53;;;26.30;99.90;;;;;;5069098;28;20247;-85
2021/06/23 10:54:27;;;;;;;0.60;0.60;;;27.10;99.90;;;;;;5069426;28;20212;-84
2021/06/23 10:56:52;;;;;;;1.07;0.97;;;28.00;99.90;;;;;;5063559;28;20193;-85
2021/06/23 10:59:32;;;;;;;0.63;0.63;;;26.70;99.90;;;;;;5081112;28;20185;-84
2021/06/23 11:02:12;;;;;;;0.63;0.60;;;26.50;99.90;;;;;;5066046;28;20216;-84
2021/06/23 11:04:57;;;;;;;0.57;0.57;;;26.60;99.90;;;;;;5063937;28;20203;-85
2021/06/23 11:07:35;;;;;;;0.70;0.70;;;27.00;99.90;;;;;;5068412;28;20189;-83
2021/06/23 11:10:13;;;;;;;1.17;1.00;;;25.90;99.90;;;;;;5060199;28;20681;-84
2021/06/23 11:12:47;;;;;;;0.83;0.80;;;25.00;99.90;;;;;;5063629;28;20713;-84
2021/06/23 11:15:25;;;;;;;0.90;0.63;;;24.70;99.90;;;;;;5075500;28;20255;-83
2021/06/23 11:17:53;;;;;;;0.43;0.40;;;24.60;99.90;;;;;;5058998;28;20188;-84
2021/06/23 11:20:37;;;;;;;0.50;0.50;;;25.20;99.90;;;;;;5083450;28;20275;-84
2021/06/23 11:23:03;;;;;;;0.57;0.57;;;25.20;99.90;;;;;;5066970;28;20243;-84
2021/06/23 11:25:34;;;;;;;0.67;0.67;;;25.10;99.90;;;;;;5072062;28;20205;-84
2021/06/23 11:28:09;;;;;;;1.43;1.10;;;24.80;99.90;;;;;;5071733;28;20185;-84
2021/06/23 11:30:50;;;;;;;0.70;0.70;;;24.50;99.90;;;;;;5084786;28;20186;-84
2021/06/23 11:33:28;;;;;;;1.20;1.10;;;24.40;99.90;;;;;;5072050;28;20208;-83
2021/06/23 11:35:54;;;;;;;0.50;0.50;;;24.30;99.90;;;;;;5073988;28;20262;-84
2021/06/23 11:38:20;;;;;;;0.60;0.57;;;24.10;99.90;;;;;;5072713;28;20263;-83
2021/06/23 11:40:47;;;;;;;0.50;0.50;;;24.00;99.90;;;;;;5073841;28;20201;-84
2021/06/23 11:43:12;;;;;;;0.40;0.37;;;24.00;99.90;;;;;;5071709;28;20296;-83
2021/06/23 11:45:38;;;;;;;1.57;1.47;;;24.10;99.90;;;;;;5066667;28;20272;-84
2021/06/23 11:48:04;;;;;;;1.37;0.63;;;23.70;99.90;;;;;;5063920;28;20199;-84
2021/06/23 11:50:30;;;;;;;0.47;0.47;;;24.00;99.90;;;;;;5068116;28;20188;-83
2021/06/23 11:52:55;;;;;;;0.60;0.60;;;23.80;99.90;;;;;;5053129;28;20213;-82
2021/06/23 11:55:24;;;;;;;0.40;0.40;;;23.70;99.90;;;;;;5054349;28;20192;-83
2021/06/23 11:57:58;;;;;;;0.60;0.53;;;23.80;99.90;;;;;;5055003;28;20625;-84
2021/06/23 12:00:25;;;;;;;0.73;0.50;;;24.00;99.90;;;;;;5065737;28;20267;-84
2021/06/23 12:02:51;;;;;;;0.37;0.37;;;24.30;99.90;;;;;;5057252;28;20205;-84
2021/06/23 12:05:17;;;;;;;0.50;0.50;;;24.30;99.90;;;;;;5065012;28;20185;-83
2021/06/23 12:07:43;;;;;;;0.50;0.50;;;24.30;99.90;;;;;;5063435;28;20193;-84
2021/06/23 12:10:09;;;;;;;0.57;0.57;;;24.20;99.90;;;;;;5067770;28;20185;-84
2021/06/23 12:12:35;;;;;;;0.30;0.30;;;24.10;99.90;;;;;;5080089;28;20228;-83
2021/06/23 12:15:01;;;;;;;0.37;0.37;;;24.50;99.90;;;;;;5077070;28;20190;-83
2021/06/23 12:17:27;;;;;;;0.87;0.80;;;24.50;99.90;;;;;;5062773;28;20187;-84
2021/06/23 12:19:53;;;;;;;0.50;0.47;;;24.50;99.90;;;;;;5069733;28;20185;-84
2021/06/23 12:22:25;;;;;;;0.23;0.23;;;24.50;99.90;;;;;;5064114;28;20248;-84
2021/06/23 12:24:51;;;;;;;0.83;0.60;;;24.20;99.90;;;;;;5057021;28;20200;-84
2021/06/23 12:27:17;;;;;;;0.83;0.77;;;24.20;99.90;;;;;;5061234;28;20288;-84
2021/06/23 12:29:43;;;;;;;0.40;0.40;;;24.10;99.90;;;;;;5073983;28;20200;-84
2021/06/23 12:32:08;;;;;;;0.60;0.60;;;24.50;99.90;;;;;;5055747;28;20216;-84
2021/06/23 12:34:35;;;;;;;0.50;0.50;;;24.70;99.90;;;;;;5068939;28;20189;-82
2021/06/23 12:37:00;;;;;;;0.50;0.50;;;24.50;99.90;;;;;;5067802;28;20268;-83
2021/06/23 12:39:26;;;;;;;0.60;0.60;;;24.40;99.90;;;;;;5063296;28;20261;-82
2021/06/23 12:41:52;;;;;;;0.50;0.50;;;24.50;99.90;;;;;;5061136;28;20261;-83
2021/06/23 12:44:19;;;;;;;0.60;0.60;;;24.60;99.90;;;;;;5066589;28;20231;-83
2021/06/23 12:46:44;;;;;;;0.47;0.47;;;25.00;99.90;;;;;;5062971;28;20681;-83
2021/06/23 12:49:11;;;;;;;0.50;0.50;;;25.50;99.90;;;;;;5063242;28;20180;-82
2021/06/23 12:51:37;;;;;;;0.50;0.50;;;25.60;99.90;;;;;;5078062;28;20247;-82
2021/06/23 12:54:02;;;;;;;1.10;1.10;;;25.70;99.90;;;;;;5066712;28;20238;-83
2021/06/23 12:56:28;;;;;;;0.40;0.40;;;25.60;99.90;;;;;;5059729;28;20197;-83
2021/06/23 12:58:54;;;;;;;0.30;0.30;;;25.60;99.90;;;;;;5058754;28;20185;-84
2021/06/23 13:01:20;;;;;;;0.40;0.40;;;25.30;99.90;;;;;;5054532;28;20205;-84
2021/06/23 13:03:46;;;;;;;2.33;1.50;;;25.00;99.90;;;;;;5052994;28;20666;-83
2021/06/23 13:06:12;;;;;;;0.67;0.67;;;25.00;99.90;;;;;;5053989;28;20230;-85
2021/06/23 13:08:37;;;;;;;0.53;0.50;;;25.30;99.90;;;;;;5072578;28;20188;-85